sensor_id;sensor_type;location;lat;lon;timestamp;temperature;humidity
790;DHT22;378;48.844;9.156;2022-12-29T00:00:03;8.70;99.90
790;DHT22;378;48.844;9.156;2022-12-29T00:02:31;8.70;99.90
790;DHT22;378;48.844;9.156;2022-12-29T00:04:57;8.80;99.90
790;DHT22;378;48.844;9.156;2022-12-29T00:07:24;8.80;99.90
790;DHT22;378;48.844;9.156;2022-12-29T00:09:51;8.80;99.90
790;DHT22;378;48.844;9.156;2022-12-29T00:12:18;8.90;99.90
790;DHT22;378;48.844;9.156;2022-12-29T00:14:46;9.00;99.90
790;DHT22;378;48.844;9.156;2022-12-29T00:17:30;9.00;99.90
790;DHT22;378;48.844;9.156;2022-12-29T00:19:57;9.00;99.90
790;DHT22;378;48.844;9.156;2022-12-29T00:22:42;9.00;99.90
790;DHT22;378;48.844;9.156;2022-12-29T00:25:28;8.90;99.90
790;DHT22;378;48.844;9.156;2022-12-29T00:28:13;9.00;99.90
790;DHT22;378;48.844;9.156;2022-12-29T00:31:00;9.10;99.90
790;DHT22;378;48.844;9.156;2022-12-29T00:33:44;9.10;99.90
790;DHT22;378;48.844;9.156;2022-12-29T00:36:32;9.10;99.90
790;DHT22;378;48.844;9.156;2022-12-29T00:39:02;9.10;99.90
790;DHT22;378;48.844;9.156;2022-12-29T00:41:47;9.10;99.90
790;DHT22;378;48.844;9.156;2022-12-29T00:44:31;9.30;99.90
790;DHT22;378;48.844;9.156;2022-12-29T00:46:59;9.30;99.90
790;DHT22;378;48.844;9.156;2022-12-29T00:49:28;9.30;99.90
790;DHT22;378;48.844;9.156;2022-12-29T00:51:59;9.30;99.90
790;DHT22;378;48.844;9.156;2022-12-29T00:54:27;9.30;99.90
790;DHT22;378;48.844;9.156;2022-12-29T00:56:55;9.20;99.90
790;DHT22;378;48.844;9.156;2022-12-29T00:59:22;9.30;99.90
790;DHT22;378;48.844;9.156;2022-12-29T01:01:50;9.30;99.90
790;DHT22;378;48.844;9.156;2022-12-29T01:04:19;9.30;99.90
790;DHT22;378;48.844;9.156;2022-12-29T01:06:46;9.30;99.90
790;DHT22;378;48.844;9.156;2022-12-29T01:09:13;9.40;99.90
790;DHT22;378;48.844;9.156;2022-12-29T01:11:57;9.30;99.90
790;DHT22;378;48.844;9.156;2022-12-29T01:14:24;9.30;99.90
790;DHT22;378;48.844;9.156;2022-12-29T01:16:51;9.30;99.90
790;DHT22;378;48.844;9.156;2022-12-29T01:19:20;9.30;99.90
790;DHT22;378;48.844;9.156;2022-12-29T01:21:47;9.30;99.90
790;DHT22;378;48.844;9.156;2022-12-29T01:24:14;9.20;99.90
790;DHT22;378;48.844;9.156;2022-12-29T01:26:41;9.20;99.90
790;DHT22;378;48.844;9.156;2022-12-29T01:29:09;9.20;99.90
790;DHT22;378;48.844;9.156;2022-12-29T01:31:36;9.20;99.90
790;DHT22;378;48.844;9.156;2022-12-29T01:34:03;9.10;99.90
790;DHT22;378;48.844;9.156;2022-12-29T01:36:32;9.10;99.90
790;DHT22;378;48.844;9.156;2022-12-29T01:38:59;9.20;99.90
790;DHT22;378;48.844;9.156;2022-12-29T01:41:26;9.10;99.90
790;DHT22;378;48.844;9.156;2022-12-29T01:43:54;9.20;99.90
790;DHT22;378;48.844;9.156;2022-12-29T01:46:25;9.30;99.90
790;DHT22;378;48.844;9.156;2022-12-29T01:48:57;9.30;99.90
790;DHT22;378;48.844;9.156;2022-12-29T01:51:25;9.30;99.90
790;DHT22;378;48.844;9.156;2022-12-29T01:53:57;9.30;99.90
790;DHT22;378;48.844;9.156;2022-12-29T01:56:25;9.30;99.90
790;DHT22;378;48.844;9.156;2022-12-29T01:58:55;9.40;99.90
790;DHT22;378;48.844;9.156;2022-12-29T02:01:23;9.40;99.90
790;DHT22;378;48.844;9.156;2022-12-29T02:03:50;9.50;99.90
790;DHT22;378;48.844;9.156;2022-12-29T02:06:21;9.50;99.90
790;DHT22;378;48.844;9.156;2022-12-29T02:08:50;9.50;99.90
790;DHT22;378;48.844;9.156;2022-12-29T02:13:49;9.50;99.90
790;DHT22;378;48.844;9.156;2022-12-29T02:16:27;9.50;99.90
790;DHT22;378;48.844;9.156;2022-12-29T02:19:13;9.50;99.90
790;DHT22;378;48.844;9.156;2022-12-29T02:22:00;9.60;99.90
790;DHT22;378;48.844;9.156;2022-12-29T02:25:00;9.60;99.90
790;DHT22;378;48.844;9.156;2022-12-29T02:27:48;9.60;99.90
790;DHT22;378;48.844;9.156;2022-12-29T02:30:32;9.50;99.90
790;DHT22;378;48.844;9.156;2022-12-29T02:33:08;9.50;99.90
790;DHT22;378;48.844;9.156;2022-12-29T02:35:50;9.60;99.90
790;DHT22;378;48.844;9.156;2022-12-29T02:38:28;9.60;99.90
790;DHT22;378;48.844;9.156;2022-12-29T02:41:03;9.60;99.90
790;DHT22;378;48.844;9.156;2022-12-29T02:43:37;9.50;99.90
790;DHT22;378;48.844;9.156;2022-12-29T02:46:13;9.50;99.90
790;DHT22;378;48.844;9.156;2022-12-29T02:48:47;9.50;99.90
790;DHT22;378;48.844;9.156;2022-12-29T02:51:20;9.40;99.90
790;DHT22;378;48.844;9.156;2022-12-29T02:53:50;9.50;99.90
790;DHT22;378;48.844;9.156;2022-12-29T02:56:36;9.50;99.90
790;DHT22;378;48.844;9.156;2022-12-29T02:59:03;9.50;99.90
790;DHT22;378;48.844;9.156;2022-12-29T03:01:44;9.50;99.90
790;DHT22;378;48.844;9.156;2022-12-29T03:04:41;9.50;99.90
790;DHT22;378;48.844;9.156;2022-12-29T03:07:20;9.50;99.90
790;DHT22;378;48.844;9.156;2022-12-29T03:09:55;9.50;99.90
790;DHT22;378;48.844;9.156;2022-12-29T03:12:30;9.40;99.90
790;DHT22;378;48.844;9.156;2022-12-29T03:15:22;9.40;99.90
790;DHT22;378;48.844;9.156;2022-12-29T03:18:13;9.40;99.90
790;DHT22;378;48.844;9.156;2022-12-29T03:20:49;9.40;99.90
790;DHT22;378;48.844;9.156;2022-12-29T03:23:36;9.40;99.90
790;DHT22;378;48.844;9.156;2022-12-29T03:26:17;9.40;99.90
790;DHT22;378;48.844;9.156;2022-12-29T03:28:48;9.40;99.90
790;DHT22;378;48.844;9.156;2022-12-29T03:31:17;9.50;99.90
790;DHT22;378;48.844;9.156;2022-12-29T03:33:47;9.60;99.90
790;DHT22;378;48.844;9.156;2022-12-29T03:36:18;9.70;99.90
790;DHT22;378;48.844;9.156;2022-12-29T03:38:49;9.70;99.90
790;DHT22;378;48.844;9.156;2022-12-29T03:41:25;9.80;99.90
790;DHT22;378;48.844;9.156;2022-12-29T03:43:54;9.90;99.90
790;DHT22;378;48.844;9.156;2022-12-29T03:46:20;9.90;99.90
790;DHT22;378;48.844;9.156;2022-12-29T03:48:48;9.90;99.90
790;DHT22;378;48.844;9.156;2022-12-29T03:51:15;10.00;99.90
790;DHT22;378;48.844;9.156;2022-12-29T03:53:42;10.10;99.90
790;DHT22;378;48.844;9.156;2022-12-29T03:56:09;10.20;99.90
790;DHT22;378;48.844;9.156;2022-12-29T03:58:36;10.20;99.90
790;DHT22;378;48.844;9.156;2022-12-29T04:01:02;10.30;99.90
790;DHT22;378;48.844;9.156;2022-12-29T04:03:31;10.50;99.90
790;DHT22;378;48.844;9.156;2022-12-29T04:06:02;10.50;99.90
790;DHT22;378;48.844;9.156;2022-12-29T04:08:29;10.50;99.90
790;DHT22;378;48.844;9.156;2022-12-29T04:10:55;10.40;99.90
790;DHT22;378;48.844;9.156;2022-12-29T04:13:23;10.40;99.90
790;DHT22;378;48.844;9.156;2022-12-29T04:15:50;10.30;99.90
790;DHT22;378;48.844;9.156;2022-12-29T04:18:17;10.30;99.90
790;DHT22;378;48.844;9.156;2022-12-29T04:20:47;10.30;99.90
790;DHT22;378;48.844;9.156;2022-12-29T04:23:30;10.30;99.90
790;DHT22;378;48.844;9.156;2022-12-29T04:25:57;10.30;99.90
790;DHT22;378;48.844;9.156;2022-12-29T04:28:24;10.30;99.90
790;DHT22;378;48.844;9.156;2022-12-29T04:30:51;10.40;99.90
790;DHT22;378;48.844;9.156;2022-12-29T04:33:21;10.30;99.90
790;DHT22;378;48.844;9.156;2022-12-29T04:35:51;10.30;99.90
790;DHT22;378;48.844;9.156;2022-12-29T04:38:20;10.40;99.90
790;DHT22;378;48.844;9.156;2022-12-29T04:40:50;10.30;99.90
790;DHT22;378;48.844;9.156;2022-12-29T04:43:17;10.30;99.90
790;DHT22;378;48.844;9.156;2022-12-29T04:45:45;10.30;99.90
790;DHT22;378;48.844;9.156;2022-12-29T04:48:12;10.30;99.90
790;DHT22;378;48.844;9.156;2022-12-29T04:50:40;10.30;99.90
790;DHT22;378;48.844;9.156;2022-12-29T04:53:06;10.30;99.90
790;DHT22;378;48.844;9.156;2022-12-29T04:55:33;10.30;99.90
790;DHT22;378;48.844;9.156;2022-12-29T04:58:01;10.40;99.90
790;DHT22;378;48.844;9.156;2022-12-29T05:00:31;10.40;99.90
790;DHT22;378;48.844;9.156;2022-12-29T05:03:02;10.50;99.90
790;DHT22;378;48.844;9.156;2022-12-29T05:05:31;10.40;99.90
790;DHT22;378;48.844;9.156;2022-12-29T05:07:58;10.40;99.90
790;DHT22;378;48.844;9.156;2022-12-29T05:10:25;10.40;99.90
790;DHT22;378;48.844;9.156;2022-12-29T05:12:51;10.50;99.90
790;DHT22;378;48.844;9.156;2022-12-29T05:15:20;10.50;99.90
790;DHT22;378;48.844;9.156;2022-12-29T05:17:46;10.60;99.90
790;DHT22;378;48.844;9.156;2022-12-29T05:20:13;10.60;99.90
790;DHT22;378;48.844;9.156;2022-12-29T05:22:40;10.60;99.90
790;DHT22;378;48.844;9.156;2022-12-29T05:25:08;10.70;99.90
790;DHT22;378;48.844;9.156;2022-12-29T05:27:35;10.70;99.90
790;DHT22;378;48.844;9.156;2022-12-29T05:30:01;10.80;99.90
790;DHT22;378;48.844;9.156;2022-12-29T05:32:30;10.80;99.90
790;DHT22;378;48.844;9.156;2022-12-29T05:34:56;10.90;99.90
790;DHT22;378;48.844;9.156;2022-12-29T05:37:23;11.00;99.90
790;DHT22;378;48.844;9.156;2022-12-29T05:39:50;10.90;99.90
790;DHT22;378;48.844;9.156;2022-12-29T05:42:17;11.00;99.90
790;DHT22;378;48.844;9.156;2022-12-29T05:44:45;11.00;99.90
790;DHT22;378;48.844;9.156;2022-12-29T05:47:12;11.10;99.90
790;DHT22;378;48.844;9.156;2022-12-29T05:49:40;11.20;99.90
790;DHT22;378;48.844;9.156;2022-12-29T05:52:06;11.20;99.90
790;DHT22;378;48.844;9.156;2022-12-29T05:54:33;11.20;99.90
790;DHT22;378;48.844;9.156;2022-12-29T05:57:00;11.20;99.90
790;DHT22;378;48.844;9.156;2022-12-29T05:59:27;11.30;99.90
790;DHT22;378;48.844;9.156;2022-12-29T06:01:54;11.30;99.90
790;DHT22;378;48.844;9.156;2022-12-29T06:04:20;11.40;99.90
790;DHT22;378;48.844;9.156;2022-12-29T06:06:49;11.40;99.90
790;DHT22;378;48.844;9.156;2022-12-29T06:09:16;11.40;99.90
790;DHT22;378;48.844;9.156;2022-12-29T06:11:42;11.30;99.90
790;DHT22;378;48.844;9.156;2022-12-29T06:14:09;11.30;99.90
790;DHT22;378;48.844;9.156;2022-12-29T06:16:36;11.30;99.90
790;DHT22;378;48.844;9.156;2022-12-29T06:19:03;11.30;99.90
790;DHT22;378;48.844;9.156;2022-12-29T06:21:30;11.20;99.90
790;DHT22;378;48.844;9.156;2022-12-29T06:23:58;11.10;99.90
790;DHT22;378;48.844;9.156;2022-12-29T06:29:00;11.20;99.90
790;DHT22;378;48.844;9.156;2022-12-29T06:31:30;11.20;99.90
790;DHT22;378;48.844;9.156;2022-12-29T06:33:58;11.20;99.90
790;DHT22;378;48.844;9.156;2022-12-29T06:36:25;11.10;99.90
790;DHT22;378;48.844;9.156;2022-12-29T06:38:51;11.10;99.90
790;DHT22;378;48.844;9.156;2022-12-29T06:41:20;11.10;99.90
790;DHT22;378;48.844;9.156;2022-12-29T06:43:47;11.10;99.90
790;DHT22;378;48.844;9.156;2022-12-29T06:46:14;11.10;99.90
790;DHT22;378;48.844;9.156;2022-12-29T06:48:41;11.10;99.90
790;DHT22;378;48.844;9.156;2022-12-29T06:51:10;11.20;99.90
790;DHT22;378;48.844;9.156;2022-12-29T06:53:37;11.20;99.90
790;DHT22;378;48.844;9.156;2022-12-29T06:56:04;11.20;99.90
790;DHT22;378;48.844;9.156;2022-12-29T06:58:32;11.20;99.90
790;DHT22;378;48.844;9.156;2022-12-29T07:00:59;11.20;99.90
790;DHT22;378;48.844;9.156;2022-12-29T07:03:26;11.10;99.90
790;DHT22;378;48.844;9.156;2022-12-29T07:05:53;11.00;99.90
790;DHT22;378;48.844;9.156;2022-12-29T07:08:20;11.00;99.90
790;DHT22;378;48.844;9.156;2022-12-29T07:10:50;10.90;99.90
790;DHT22;378;48.844;9.156;2022-12-29T07:13:20;10.90;99.90
790;DHT22;378;48.844;9.156;2022-12-29T07:15:48;10.90;99.90
790;DHT22;378;48.844;9.156;2022-12-29T07:18:15;10.80;99.90
790;DHT22;378;48.844;9.156;2022-12-29T07:20:41;10.70;99.90
790;DHT22;378;48.844;9.156;2022-12-29T07:23:08;10.70;99.90
790;DHT22;378;48.844;9.156;2022-12-29T07:25:35;10.70;99.90
790;DHT22;378;48.844;9.156;2022-12-29T07:28:02;10.70;99.90
790;DHT22;378;48.844;9.156;2022-12-29T07:30:29;10.70;99.90
790;DHT22;378;48.844;9.156;2022-12-29T07:32:58;10.70;99.90
790;DHT22;378;48.844;9.156;2022-12-29T07:35:25;10.70;99.90
790;DHT22;378;48.844;9.156;2022-12-29T07:37:52;10.60;99.90
790;DHT22;378;48.844;9.156;2022-12-29T07:40:21;10.60;99.90
790;DHT22;378;48.844;9.156;2022-12-29T07:42:48;10.60;99.90
790;DHT22;378;48.844;9.156;2022-12-29T07:45:16;10.60;99.90
790;DHT22;378;48.844;9.156;2022-12-29T07:47:47;10.70;99.90
790;DHT22;378;48.844;9.156;2022-12-29T07:50:15;10.60;99.90
790;DHT22;378;48.844;9.156;2022-12-29T07:52:44;10.50;99.90
790;DHT22;378;48.844;9.156;2022-12-29T07:55:18;10.50;99.90
790;DHT22;378;48.844;9.156;2022-12-29T07:57:48;10.40;99.90
790;DHT22;378;48.844;9.156;2022-12-29T08:00:15;10.50;99.90
790;DHT22;378;48.844;9.156;2022-12-29T08:02:43;10.40;99.90
790;DHT22;378;48.844;9.156;2022-12-29T08:05:12;10.30;99.90
790;DHT22;378;48.844;9.156;2022-12-29T08:07:42;10.30;99.90
790;DHT22;378;48.844;9.156;2022-12-29T08:10:10;10.40;99.90
790;DHT22;378;48.844;9.156;2022-12-29T08:12:38;10.40;99.90
790;DHT22;378;48.844;9.156;2022-12-29T08:15:06;10.30;99.90
790;DHT22;378;48.844;9.156;2022-12-29T08:17:32;10.40;99.90
790;DHT22;378;48.844;9.156;2022-12-29T08:19:59;10.40;99.90
790;DHT22;378;48.844;9.156;2022-12-29T08:22:26;10.40;99.90
790;DHT22;378;48.844;9.156;2022-12-29T08:24:54;10.40;99.90
790;DHT22;378;48.844;9.156;2022-12-29T08:27:22;10.50;99.90
790;DHT22;378;48.844;9.156;2022-12-29T08:29:50;10.40;99.90
790;DHT22;378;48.844;9.156;2022-12-29T08:32:18;10.50;99.90
790;DHT22;378;48.844;9.156;2022-12-29T08:34:46;10.50;99.90
790;DHT22;378;48.844;9.156;2022-12-29T08:37:12;10.60;99.90
790;DHT22;378;48.844;9.156;2022-12-29T08:39:39;10.60;99.90
790;DHT22;378;48.844;9.156;2022-12-29T08:42:07;10.50;99.90
790;DHT22;378;48.844;9.156;2022-12-29T08:44:35;10.40;99.90
790;DHT22;378;48.844;9.156;2022-12-29T08:47:10;10.40;99.90
790;DHT22;378;48.844;9.156;2022-12-29T08:49:37;10.40;99.90
790;DHT22;378;48.844;9.156;2022-12-29T08:52:04;10.40;99.90
790;DHT22;378;48.844;9.156;2022-12-29T08:54:31;10.40;99.90
790;DHT22;378;48.844;9.156;2022-12-29T08:57:00;10.40;99.90
790;DHT22;378;48.844;9.156;2022-12-29T08:59:28;10.50;99.90
790;DHT22;378;48.844;9.156;2022-12-29T09:01:55;10.70;99.90
790;DHT22;378;48.844;9.156;2022-12-29T09:04:24;10.70;99.90
790;DHT22;378;48.844;9.156;2022-12-29T09:06:53;10.70;99.90
790;DHT22;378;48.844;9.156;2022-12-29T09:09:20;10.80;99.90
790;DHT22;378;48.844;9.156;2022-12-29T09:11:47;11.20;99.90
790;DHT22;378;48.844;9.156;2022-12-29T09:14:14;11.40;99.90
790;DHT22;378;48.844;9.156;2022-12-29T09:16:42;11.40;99.90
790;DHT22;378;48.844;9.156;2022-12-29T09:19:27;11.40;99.90
790;DHT22;378;48.844;9.156;2022-12-29T09:21:54;11.40;99.90
790;DHT22;378;48.844;9.156;2022-12-29T09:24:20;11.60;99.90
790;DHT22;378;48.844;9.156;2022-12-29T09:26:47;11.80;99.90
790;DHT22;378;48.844;9.156;2022-12-29T09:29:14;12.00;99.90
790;DHT22;378;48.844;9.156;2022-12-29T09:31:42;12.10;99.90
790;DHT22;378;48.844;9.156;2022-12-29T09:34:09;12.30;99.90
790;DHT22;378;48.844;9.156;2022-12-29T09:36:36;12.40;99.90
790;DHT22;378;48.844;9.156;2022-12-29T09:39:03;12.50;99.90
790;DHT22;378;48.844;9.156;2022-12-29T09:41:34;12.50;99.90
790;DHT22;378;48.844;9.156;2022-12-29T09:44:06;12.60;99.90
790;DHT22;378;48.844;9.156;2022-12-29T09:46:37;12.70;99.90
790;DHT22;378;48.844;9.156;2022-12-29T09:49:16;12.90;99.90
790;DHT22;378;48.844;9.156;2022-12-29T09:51:49;13.10;99.90
790;DHT22;378;48.844;9.156;2022-12-29T09:57:16;13.20;99.90
790;DHT22;378;48.844;9.156;2022-12-29T09:59:46;13.40;99.90
790;DHT22;378;48.844;9.156;2022-12-29T10:02:32;13.60;99.90
790;DHT22;378;48.844;9.156;2022-12-29T10:05:02;13.60;99.90
790;DHT22;378;48.844;9.156;2022-12-29T10:07:36;13.50;99.90
790;DHT22;378;48.844;9.156;2022-12-29T10:10:19;13.30;99.90
790;DHT22;378;48.844;9.156;2022-12-29T10:13:00;13.30;99.90
790;DHT22;378;48.844;9.156;2022-12-29T10:15:40;13.20;99.90
790;DHT22;378;48.844;9.156;2022-12-29T10:18:22;13.10;99.90
790;DHT22;378;48.844;9.156;2022-12-29T10:20:58;13.10;99.90
790;DHT22;378;48.844;9.156;2022-12-29T10:23:30;13.10;99.90
790;DHT22;378;48.844;9.156;2022-12-29T10:26:00;13.10;99.90
790;DHT22;378;48.844;9.156;2022-12-29T10:28:34;13.20;99.90
790;DHT22;378;48.844;9.156;2022-12-29T10:31:03;13.20;99.90
790;DHT22;378;48.844;9.156;2022-12-29T10:33:35;13.20;99.90
790;DHT22;378;48.844;9.156;2022-12-29T10:36:12;13.20;99.90
790;DHT22;378;48.844;9.156;2022-12-29T10:38:44;13.30;99.90
790;DHT22;378;48.844;9.156;2022-12-29T10:41:18;13.30;99.90
790;DHT22;378;48.844;9.156;2022-12-29T10:43:49;13.40;99.90
790;DHT22;378;48.844;9.156;2022-12-29T10:46:19;13.40;99.90
790;DHT22;378;48.844;9.156;2022-12-29T10:48:46;13.30;99.90
790;DHT22;378;48.844;9.156;2022-12-29T10:51:20;13.20;99.90
790;DHT22;378;48.844;9.156;2022-12-29T10:53:52;13.20;99.90
790;DHT22;378;48.844;9.156;2022-12-29T10:56:30;13.40;99.90
790;DHT22;378;48.844;9.156;2022-12-29T10:59:01;13.50;99.90
790;DHT22;378;48.844;9.156;2022-12-29T11:01:36;13.60;99.90
790;DHT22;378;48.844;9.156;2022-12-29T11:04:07;13.70;99.90
790;DHT22;378;48.844;9.156;2022-12-29T11:06:43;13.80;99.90
790;DHT22;378;48.844;9.156;2022-12-29T11:09:13;13.90;99.90
790;DHT22;378;48.844;9.156;2022-12-29T11:11:41;14.10;99.90
790;DHT22;378;48.844;9.156;2022-12-29T11:14:12;14.30;99.90
790;DHT22;378;48.844;9.156;2022-12-29T11:16:40;14.50;99.90
790;DHT22;378;48.844;9.156;2022-12-29T11:19:20;14.50;99.90
790;DHT22;378;48.844;9.156;2022-12-29T11:21:50;14.40;99.90
790;DHT22;378;48.844;9.156;2022-12-29T11:24:22;14.30;99.90
790;DHT22;378;48.844;9.156;2022-12-29T11:26:51;14.00;99.90
790;DHT22;378;48.844;9.156;2022-12-29T11:29:27;13.90;99.90
790;DHT22;378;48.844;9.156;2022-12-29T11:31:55;13.80;99.90
790;DHT22;378;48.844;9.156;2022-12-29T11:34:25;13.80;99.90
790;DHT22;378;48.844;9.156;2022-12-29T11:37:01;13.80;99.90
790;DHT22;378;48.844;9.156;2022-12-29T11:39:36;13.70;99.90
790;DHT22;378;48.844;9.156;2022-12-29T11:42:06;13.60;99.90
790;DHT22;378;48.844;9.156;2022-12-29T11:44:43;13.50;99.90
790;DHT22;378;48.844;9.156;2022-12-29T11:47:20;13.40;99.90
790;DHT22;378;48.844;9.156;2022-12-29T11:49:50;13.30;99.90
790;DHT22;378;48.844;9.156;2022-12-29T11:52:22;13.30;99.90
790;DHT22;378;48.844;9.156;2022-12-29T11:54:50;13.30;99.90
790;DHT22;378;48.844;9.156;2022-12-29T11:57:18;13.10;99.90
790;DHT22;378;48.844;9.156;2022-12-29T11:59:49;12.80;99.90
790;DHT22;378;48.844;9.156;2022-12-29T12:02:32;12.70;99.90
790;DHT22;378;48.844;9.156;2022-12-29T12:05:08;12.80;99.90
790;DHT22;378;48.844;9.156;2022-12-29T12:07:42;12.70;99.90
790;DHT22;378;48.844;9.156;2022-12-29T12:10:20;12.50;99.90
790;DHT22;378;48.844;9.156;2022-12-29T12:12:53;12.40;99.90
790;DHT22;378;48.844;9.156;2022-12-29T12:15:25;12.20;99.90
790;DHT22;378;48.844;9.156;2022-12-29T12:17:55;12.20;99.90
790;DHT22;378;48.844;9.156;2022-12-29T12:20:31;12.20;99.90
790;DHT22;378;48.844;9.156;2022-12-29T12:23:10;12.20;99.90
790;DHT22;378;48.844;9.156;2022-12-29T12:25:43;12.40;99.90
790;DHT22;378;48.844;9.156;2022-12-29T12:28:18;12.50;99.90
790;DHT22;378;48.844;9.156;2022-12-29T12:30:47;12.50;99.90
790;DHT22;378;48.844;9.156;2022-12-29T12:33:22;12.40;99.90
790;DHT22;378;48.844;9.156;2022-12-29T12:36:03;12.50;99.90
790;DHT22;378;48.844;9.156;2022-12-29T12:38:38;12.60;99.90
790;DHT22;378;48.844;9.156;2022-12-29T12:41:12;12.70;99.90
790;DHT22;378;48.844;9.156;2022-12-29T12:43:43;12.80;99.90
790;DHT22;378;48.844;9.156;2022-12-29T12:46:39;13.00;99.90
790;DHT22;378;48.844;9.156;2022-12-29T12:52:17;13.40;99.90
790;DHT22;378;48.844;9.156;2022-12-29T12:55:18;13.50;99.90
790;DHT22;378;48.844;9.156;2022-12-29T12:57:52;13.40;99.90
790;DHT22;378;48.844;9.156;2022-12-29T13:00:21;13.50;99.90
790;DHT22;378;48.844;9.156;2022-12-29T13:02:58;13.60;99.90
790;DHT22;378;48.844;9.156;2022-12-29T13:05:45;13.70;99.90
790;DHT22;378;48.844;9.156;2022-12-29T13:08:33;13.70;99.90
790;DHT22;378;48.844;9.156;2022-12-29T13:11:13;13.70;99.90
790;DHT22;378;48.844;9.156;2022-12-29T13:13:57;13.50;99.90
790;DHT22;378;48.844;9.156;2022-12-29T13:16:33;13.30;99.90
790;DHT22;378;48.844;9.156;2022-12-29T13:19:08;13.30;99.90
790;DHT22;378;48.844;9.156;2022-12-29T13:21:47;13.10;99.90
790;DHT22;378;48.844;9.156;2022-12-29T13:24:25;13.00;99.90
790;DHT22;378;48.844;9.156;2022-12-29T13:27:03;13.00;99.90
790;DHT22;378;48.844;9.156;2022-12-29T13:29:35;13.00;99.90
790;DHT22;378;48.844;9.156;2022-12-29T13:32:21;13.00;99.90
790;DHT22;378;48.844;9.156;2022-12-29T13:35:00;13.00;99.90
790;DHT22;378;48.844;9.156;2022-12-29T13:37:31;12.80;99.90
790;DHT22;378;48.844;9.156;2022-12-29T13:40:03;12.70;99.90
790;DHT22;378;48.844;9.156;2022-12-29T13:42:32;12.60;99.90
790;DHT22;378;48.844;9.156;2022-12-29T13:45:02;12.60;99.90
790;DHT22;378;48.844;9.156;2022-12-29T13:47:34;12.50;99.90
790;DHT22;378;48.844;9.156;2022-12-29T13:50:08;12.40;99.90
790;DHT22;378;48.844;9.156;2022-12-29T13:52:44;12.40;99.90
790;DHT22;378;48.844;9.156;2022-12-29T13:55:23;12.40;99.90
790;DHT22;378;48.844;9.156;2022-12-29T13:58:00;12.50;99.90
790;DHT22;378;48.844;9.156;2022-12-29T14:00:33;12.50;99.90
790;DHT22;378;48.844;9.156;2022-12-29T14:03:18;12.50;99.90
790;DHT22;378;48.844;9.156;2022-12-29T14:06:03;12.50;99.90
790;DHT22;378;48.844;9.156;2022-12-29T14:08:34;12.60;99.90
790;DHT22;378;48.844;9.156;2022-12-29T14:11:05;12.60;99.90
790;DHT22;378;48.844;9.156;2022-12-29T14:13:38;12.60;99.90
790;DHT22;378;48.844;9.156;2022-12-29T14:16:07;12.50;99.90
790;DHT22;378;48.844;9.156;2022-12-29T14:18:41;12.50;99.90
790;DHT22;378;48.844;9.156;2022-12-29T14:21:17;12.40;99.90
790;DHT22;378;48.844;9.156;2022-12-29T14:23:46;12.40;99.90
790;DHT22;378;48.844;9.156;2022-12-29T14:26:15;12.40;99.90
790;DHT22;378;48.844;9.156;2022-12-29T14:28:45;12.30;99.90
790;DHT22;378;48.844;9.156;2022-12-29T14:31:34;12.30;99.90
790;DHT22;378;48.844;9.156;2022-12-29T14:34:28;12.30;99.90
790;DHT22;378;48.844;9.156;2022-12-29T14:36:56;12.30;99.90
790;DHT22;378;48.844;9.156;2022-12-29T14:39:36;12.40;99.90
790;DHT22;378;48.844;9.156;2022-12-29T14:42:06;12.40;99.90
790;DHT22;378;48.844;9.156;2022-12-29T14:44:46;12.30;99.90
790;DHT22;378;48.844;9.156;2022-12-29T14:47:19;12.20;99.90
790;DHT22;378;48.844;9.156;2022-12-29T14:49:47;12.20;99.90
790;DHT22;378;48.844;9.156;2022-12-29T14:52:17;12.10;99.90
790;DHT22;378;48.844;9.156;2022-12-29T14:54:50;12.10;99.90
790;DHT22;378;48.844;9.156;2022-12-29T14:57:34;12.10;99.90
790;DHT22;378;48.844;9.156;2022-12-29T15:00:12;12.10;99.90
790;DHT22;378;48.844;9.156;2022-12-29T15:02:45;12.00;99.90
790;DHT22;378;48.844;9.156;2022-12-29T15:05:24;12.00;99.90
790;DHT22;378;48.844;9.156;2022-12-29T15:07:53;12.00;99.90
790;DHT22;378;48.844;9.156;2022-12-29T15:10:22;12.00;99.90
790;DHT22;378;48.844;9.156;2022-12-29T15:12:53;12.00;99.90
790;DHT22;378;48.844;9.156;2022-12-29T15:15:23;11.90;99.90
790;DHT22;378;48.844;9.156;2022-12-29T15:17:51;11.80;99.90
790;DHT22;378;48.844;9.156;2022-12-29T15:20:24;11.70;99.90
790;DHT22;378;48.844;9.156;2022-12-29T15:22:54;11.70;99.90
790;DHT22;378;48.844;9.156;2022-12-29T15:25:22;11.70;99.90
790;DHT22;378;48.844;9.156;2022-12-29T15:27:50;11.60;99.90
790;DHT22;378;48.844;9.156;2022-12-29T15:30:19;11.60;99.90
790;DHT22;378;48.844;9.156;2022-12-29T15:32:48;11.60;99.90
790;DHT22;378;48.844;9.156;2022-12-29T15:35:27;11.60;99.90
790;DHT22;378;48.844;9.156;2022-12-29T15:37:55;11.60;99.90
790;DHT22;378;48.844;9.156;2022-12-29T15:40:24;11.60;99.90
790;DHT22;378;48.844;9.156;2022-12-29T15:43:10;11.40;99.90
790;DHT22;378;48.844;9.156;2022-12-29T15:45:41;10.80;99.90
790;DHT22;378;48.844;9.156;2022-12-29T15:48:15;10.30;99.90
790;DHT22;378;48.844;9.156;2022-12-29T15:50:43;9.80;99.90
790;DHT22;378;48.844;9.156;2022-12-29T15:53:14;9.50;99.90
790;DHT22;378;48.844;9.156;2022-12-29T15:55:44;9.30;99.90
790;DHT22;378;48.844;9.156;2022-12-29T15:58:21;9.10;99.90
790;DHT22;378;48.844;9.156;2022-12-29T16:00:49;8.90;99.90
790;DHT22;378;48.844;9.156;2022-12-29T16:03:20;8.80;99.90
790;DHT22;378;48.844;9.156;2022-12-29T16:05:53;8.90;99.90
790;DHT22;378;48.844;9.156;2022-12-29T16:08:34;8.80;99.90
790;DHT22;378;48.844;9.156;2022-12-29T16:11:04;8.80;99.90
790;DHT22;378;48.844;9.156;2022-12-29T16:13:35;8.70;99.90
790;DHT22;378;48.844;9.156;2022-12-29T16:16:09;8.70;99.90
790;DHT22;378;48.844;9.156;2022-12-29T16:18:40;8.70;99.90
790;DHT22;378;48.844;9.156;2022-12-29T16:21:16;8.70;99.90
790;DHT22;378;48.844;9.156;2022-12-29T16:23:47;8.70;99.90
790;DHT22;378;48.844;9.156;2022-12-29T16:26:16;8.70;99.90
790;DHT22;378;48.844;9.156;2022-12-29T16:28:44;8.70;99.90
790;DHT22;378;48.844;9.156;2022-12-29T16:31:20;8.60;99.90
790;DHT22;378;48.844;9.156;2022-12-29T16:33:50;8.60;99.90
790;DHT22;378;48.844;9.156;2022-12-29T16:36:25;8.60;99.90
790;DHT22;378;48.844;9.156;2022-12-29T16:41:53;8.60;99.90
790;DHT22;378;48.844;9.156;2022-12-29T16:44:22;8.60;99.90
790;DHT22;378;48.844;9.156;2022-12-29T16:47:04;8.60;99.90
790;DHT22;378;48.844;9.156;2022-12-29T16:49:35;8.50;99.90
790;DHT22;378;48.844;9.156;2022-12-29T16:52:12;8.50;99.90
790;DHT22;378;48.844;9.156;2022-12-29T16:54:40;8.50;99.90
790;DHT22;378;48.844;9.156;2022-12-29T16:57:08;8.60;99.90
790;DHT22;378;48.844;9.156;2022-12-29T16:59:38;8.60;99.90
790;DHT22;378;48.844;9.156;2022-12-29T17:02:13;8.60;99.90
790;DHT22;378;48.844;9.156;2022-12-29T17:04:42;8.60;99.90
790;DHT22;378;48.844;9.156;2022-12-29T17:07:16;8.60;99.90
790;DHT22;378;48.844;9.156;2022-12-29T17:09:43;8.60;99.90
790;DHT22;378;48.844;9.156;2022-12-29T17:12:14;8.60;99.90
790;DHT22;378;48.844;9.156;2022-12-29T17:14:43;8.60;99.90
790;DHT22;378;48.844;9.156;2022-12-29T17:17:17;8.60;99.90
790;DHT22;378;48.844;9.156;2022-12-29T17:19:48;8.60;99.90
790;DHT22;378;48.844;9.156;2022-12-29T17:22:17;8.60;99.90